sensor_id;sensor_type;location;lat;lon;timestamp;pressure;altitude;pressure_sealevel;temperature;humidity
77149;BME280;66122;47.130;16.844;2023-10-08T00:08:26;99945.22;;;16.85;84.58
77149;BME280;66122;47.130;16.844;2023-10-08T00:18:29;99944.94;;;16.29;89.30
77149;BME280;66122;47.130;16.844;2023-10-08T00:28:32;99953.13;;;16.28;89.84
77149;BME280;66122;47.130;16.844;2023-10-08T00:38:34;99947.31;;;16.34;86.53
77149;BME280;66122;47.130;16.844;2023-10-08T00:48:38;99924.00;;;16.71;80.35
77149;BME280;66122;47.130;16.844;2023-10-08T00:58:41;99929.41;;;17.15;72.29
77149;BME280;66122;47.130;16.844;2023-10-08T01:08:47;99922.47;;;17.02;72.94
77149;BME280;66122;47.130;16.844;2023-10-08T01:18:55;99910.41;;;16.85;72.04
77149;BME280;66122;47.130;16.844;2023-10-08T01:28:59;99911.69;;;16.68;71.82
77149;BME280;66122;47.130;16.844;2023-10-08T01:39:06;99894.66;;;16.34;73.49
77149;BME280;66122;47.130;16.844;2023-10-08T01:49:09;99888.94;;;16.04;76.09
77149;BME280;66122;47.130;16.844;2023-10-08T01:59:19;99883.91;;;15.99;76.52
77149;BME280;66122;47.130;16.844;2023-10-08T02:09:22;99885.00;;;15.97;78.02
77149;BME280;66122;47.130;16.844;2023-10-08T02:19:29;99881.84;;;15.79;78.52
77149;BME280;66122;47.130;16.844;2023-10-08T02:29:33;99880.44;;;15.63;79.92
77149;BME280;66122;47.130;16.844;2023-10-08T02:39:36;99860.31;;;15.70;79.27
77149;BME280;66122;47.130;16.844;2023-10-08T02:49:42;99831.44;;;15.75;80.07
77149;BME280;66122;47.130;16.844;2023-10-08T02:59:45;99833.13;;;15.76;82.05
77149;BME280;66122;47.130;16.844;2023-10-08T03:09:52;99847.75;;;15.83;77.93
77149;BME280;66122;47.130;16.844;2023-10-08T03:20:20;99838.69;;;15.73;79.54
77149;BME280;66122;47.130;16.844;2023-10-08T03:30:42;99840.97;;;15.66;79.80
77149;BME280;66122;47.130;16.844;2023-10-08T03:40:55;99841.38;;;15.73;78.70
77149;BME280;66122;47.130;16.844;2023-10-08T03:51:12;99839.84;;;15.81;79.14
77149;BME280;66122;47.130;16.844;2023-10-08T04:01:15;99833.13;;;15.76;80.83
77149;BME280;66122;47.130;16.844;2023-10-08T04:11:21;99832.41;;;15.74;80.11
77149;BME280;66122;47.130;16.844;2023-10-08T04:21:40;99825.34;;;15.73;80.82
77149;BME280;66122;47.130;16.844;2023-10-08T04:31:45;99840.63;;;15.71;80.65
77149;BME280;66122;47.130;16.844;2023-10-08T04:41:49;99829.81;;;15.36;82.51
77149;BME280;66122;47.130;16.844;2023-10-08T04:52:05;99822.44;;;15.39;83.70
77149;BME280;66122;47.130;16.844;2023-10-08T05:02:16;99831.06;;;15.43;83.20
77149;BME280;66122;47.130;16.844;2023-10-08T05:12:26;99840.91;;;15.55;83.11
77149;BME280;66122;47.130;16.844;2023-10-08T05:22:49;99841.53;;;15.09;90.55
77149;BME280;66122;47.130;16.844;2023-10-08T05:32:58;99854.28;;;15.30;92.28
77149;BME280;66122;47.130;16.844;2023-10-08T05:43:37;99852.47;;;15.30;94.63
77149;BME280;66122;47.130;16.844;2023-10-08T05:53:42;99833.28;;;15.49;90.87
77149;BME280;66122;47.130;16.844;2023-10-08T06:03:51;99842.91;;;15.51;88.20
77149;BME280;66122;47.130;16.844;2023-10-08T06:14:05;99852.31;;;15.70;87.76
77149;BME280;66122;47.130;16.844;2023-10-08T06:24:30;99865.38;;;15.85;85.61
77149;BME280;66122;47.130;16.844;2023-10-08T06:34:35;99886.00;;;16.07;86.21
77149;BME280;66122;47.130;16.844;2023-10-08T06:44:37;99914.06;;;16.01;89.15
77149;BME280;66122;47.130;16.844;2023-10-08T06:54:48;99915.31;;;16.32;87.54
77149;BME280;66122;47.130;16.844;2023-10-08T07:04:51;99903.41;;;16.60;88.67
77149;BME280;66122;47.130;16.844;2023-10-08T07:14:54;99904.81;;;16.88;87.97
77149;BME280;66122;47.130;16.844;2023-10-08T07:24:56;99906.81;;;17.20;85.15
77149;BME280;66122;47.130;16.844;2023-10-08T07:34:59;99891.44;;;17.44;80.57
77149;BME280;66122;47.130;16.844;2023-10-08T07:45:22;99912.88;;;17.66;77.07
77149;BME280;66122;47.130;16.844;2023-10-08T07:55:24;99897.38;;;17.92;79.73
77149;BME280;66122;47.130;16.844;2023-10-08T08:05:27;99894.25;;;18.19;80.59
77149;BME280;66122;47.130;16.844;2023-10-08T08:15:29;99910.50;;;18.38;79.46
77149;BME280;66122;47.130;16.844;2023-10-08T08:25:39;99924.66;;;18.93;75.76
77149;BME280;66122;47.130;16.844;2023-10-08T08:36:00;99925.19;;;19.38;73.02
77149;BME280;66122;47.130;16.844;2023-10-08T08:46:03;99923.91;;;19.63;72.83
77149;BME280;66122;47.130;16.844;2023-10-08T08:56:09;99937.50;;;20.20;69.19
77149;BME280;66122;47.130;16.844;2023-10-08T09:06:12;99958.69;;;20.73;67.55
77149;BME280;66122;47.130;16.844;2023-10-08T09:16:16;99947.44;;;21.07;66.75
77149;BME280;66122;47.130;16.844;2023-10-08T09:26:23;99958.94;;;21.09;63.81
77149;BME280;66122;47.130;16.844;2023-10-08T09:36:27;99989.38;;;21.48;69.51
77149;BME280;66122;47.130;16.844;2023-10-08T09:46:37;100014.97;;;21.15;74.16
77149;BME280;66122;47.130;16.844;2023-10-08T09:56:42;100040.22;;;21.14;72.39
77149;BME280;66122;47.130;16.844;2023-10-08T10:06:46;100052.88;;;21.89;55.17
77149;BME280;66122;47.130;16.844;2023-10-08T10:17:08;100051.94;;;22.17;52.77
77149;BME280;66122;47.130;16.844;2023-10-08T10:27:15;100066.75;;;22.58;53.48
77149;BME280;66122;47.130;16.844;2023-10-08T10:37:20;100076.38;;;22.43;52.63
77149;BME280;66122;47.130;16.844;2023-10-08T10:47:22;100074.97;;;22.39;52.27
77149;BME280;66122;47.130;16.844;2023-10-08T10:57:29;100086.31;;;22.42;52.41
77149;BME280;66122;47.130;16.844;2023-10-08T11:07:37;100124.63;;;21.62;58.97
77149;BME280;66122;47.130;16.844;2023-10-08T11:17:44;100146.47;;;20.21;63.32
77149;BME280;66122;47.130;16.844;2023-10-08T11:27:52;100158.91;;;19.71;65.68
77149;BME280;66122;47.130;16.844;2023-10-08T11:38:04;100179.00;;;19.24;65.91
77149;BME280;66122;47.130;16.844;2023-10-08T11:48:06;100223.78;;;18.36;67.66
77149;BME280;66122;47.130;16.844;2023-10-08T11:58:15;100262.13;;;18.60;66.15
77149;BME280;66122;47.130;16.844;2023-10-08T12:08:20;100256.47;;;19.30;64.61
77149;BME280;66122;47.130;16.844;2023-10-08T12:18:25;100290.66;;;18.50;66.15
77149;BME280;66122;47.130;16.844;2023-10-08T12:28:30;100276.88;;;17.98;64.87
77149;BME280;66122;47.130;16.844;2023-10-08T12:38:32;100270.28;;;18.02;64.53
77149;BME280;66122;47.130;16.844;2023-10-08T12:48:35;100294.56;;;18.00;64.21
77149;BME280;66122;47.130;16.844;2023-10-08T12:58:37;100313.56;;;17.37;65.27
77149;BME280;66122;47.130;16.844;2023-10-08T13:08:51;100345.13;;;16.45;68.84
77149;BME280;66122;47.130;16.844;2023-10-08T13:18:55;100357.59;;;16.84;68.06
77149;BME280;66122;47.130;16.844;2023-10-08T13:29:00;100363.75;;;16.46;68.76
77149;BME280;66122;47.130;16.844;2023-10-08T13:39:06;100366.03;;;15.59;71.66
77149;BME280;66122;47.130;16.844;2023-10-08T13:49:12;100366.94;;;15.17;75.10
77149;BME280;66122;47.130;16.844;2023-10-08T13:59:18;100362.59;;;15.43;74.73
77149;BME280;66122;47.130;16.844;2023-10-08T14:09:22;100398.78;;;14.77;76.36
77149;BME280;66122;47.130;16.844;2023-10-08T14:19:37;100397.56;;;14.39;80.64
77149;BME280;66122;47.130;16.844;2023-10-08T14:29:49;100405.25;;;14.14;80.70
77149;BME280;66122;47.130;16.844;2023-10-08T14:39:54;100420.59;;;13.79;83.02
77149;BME280;66122;47.130;16.844;2023-10-08T14:50:15;100453.16;;;13.52;84.77
77149;BME280;66122;47.130;16.844;2023-10-08T15:00:21;100467.94;;;13.58;84.21
77149;BME280;66122;47.130;16.844;2023-10-08T15:10:29;100465.50;;;13.38;86.27
77149;BME280;66122;47.130;16.844;2023-10-08T15:20:32;100470.06;;;13.18;83.07
77149;BME280;66122;47.130;16.844;2023-10-08T15:30:36;100474.28;;;13.05;82.22
77149;BME280;66122;47.130;16.844;2023-10-08T15:40:39;100503.81;;;13.01;80.85
77149;BME280;66122;47.130;16.844;2023-10-08T15:50:44;100502.34;;;12.95;82.96
77149;BME280;66122;47.130;16.844;2023-10-08T16:00:47;100503.13;;;12.80;86.14
77149;BME280;66122;47.130;16.844;2023-10-08T16:10:49;100515.81;;;12.75;87.16
77149;BME280;66122;47.130;16.844;2023-10-08T16:20:52;100526.09;;;12.64;88.62
77149;BME280;66122;47.130;16.844;2023-10-08T16:30:56;100526.88;;;12.48;90.61
77149;BME280;66122;47.130;16.844;2023-10-08T16:41:00;100528.72;;;12.46;92.07
77149;BME280;66122;47.130;16.844;2023-10-08T16:51:03;100546.72;;;12.41;93.97
77149;BME280;66122;47.130;16.844;2023-10-08T17:01:06;100589.84;;;12.29;94.20
77149;BME280;66122;47.130;16.844;2023-10-08T17:11:12;100579.56;;;12.22;91.37
77149;BME280;66122;47.130;16.844;2023-10-08T17:21:17;100592.78;;;12.04;89.52
77149;BME280;66122;47.130;16.844;2023-10-08T17:31:22;100590.84;;;12.08;87.63
77149;BME280;66122;47.130;16.844;2023-10-08T17:41:26;100619.28;;;12.06;85.35
77149;BME280;66122;47.130;16.844;2023-10-08T17:51:29;100611.75;;;12.16;85.18
77149;BME280;66122;47.130;16.844;2023-10-08T18:01:35;100634.94;;;12.12;84.99
77149;BME280;66122;47.130;16.844;2023-10-08T18:11:42;100625.88;;;11.97;86.09
77149;BME280;66122;47.130;16.844;2023-10-08T18:21:45;100650.34;;;12.04;85.61
77149;BME280;66122;47.130;16.844;2023-10-08T18:31:49;100680.25;;;12.09;86.05
77149;BME280;66122;47.130;16.844;2023-10-08T18:41:52;100709.22;;;12.15;86.30
77149;BME280;66122;47.130;16.844;2023-10-08T18:51:56;100702.03;;;12.17;85.96
77149;BME280;66122;47.130;16.844;2023-10-08T19:01:59;100679.56;;;12.24;84.93
77149;BME280;66122;47.130;16.844;2023-10-08T19:12:02;100699.69;;;12.30;83.77
77149;BME280;66122;47.130;16.844;2023-10-08T19:22:08;100696.97;;;12.31;84.26
77149;BME280;66122;47.130;16.844;2023-10-08T19:32:12;100701.50;;;12.09;85.98
77149;BME280;66122;47.130;16.844;2023-10-08T19:42:15;100714.81;;;12.28;84.59
77149;BME280;66122;47.130;16.844;2023-10-08T19:52:18;100738.69;;;12.29;84.01
77149;BME280;66122;47.130;16.844;2023-10-08T20:02:21;100742.13;;;12.31;84.36
77149;BME280;66122;47.130;16.844;2023-10-08T20:12:24;100765.28;;;12.09;83.94
77149;BME280;66122;47.130;16.844;2023-10-08T20:22:27;100773.88;;;12.34;83.42
77149;BME280;66122;47.130;16.844;2023-10-08T20:32:30;100787.47;;;12.47;82.18
77149;BME280;66122;47.130;16.844;2023-10-08T20:42:34;100803.25;;;12.51;81.62
77149;BME280;66122;47.130;16.844;2023-10-08T20:52:37;100804.44;;;12.44;83.03
77149;BME280;66122;47.130;16.844;2023-10-08T21:02:41;100797.47;;;12.42;82.85
77149;BME280;66122;47.130;16.844;2023-10-08T21:12:47;100800.44;;;12.55;81.50
77149;BME280;66122;47.130;16.844;2023-10-08T21:22:51;100813.94;;;12.50;81.14
77149;BME280;66122;47.130;16.844;2023-10-08T21:32:55;100807.91;;;12.06;82.49
77149;BME280;66122;47.130;16.844;2023-10-08T21:42:58;100793.31;;;12.16;83.31
77149;BME280;66122;47.130;16.844;2023-10-08T21:53:02;100787.34;;;12.50;81.93
77149;BME280;66122;47.130;16.844;2023-10-08T22:03:06;100779.78;;;12.41;83.42
77149;BME280;66122;47.130;16.844;2023-10-08T22:13:12;100771.75;;;12.42;84.10
77149;BME280;66122;47.130;16.844;2023-10-08T22:23:15;100766.38;;;12.03;84.88
77149;BME280;66122;47.130;16.844;2023-10-08T22:33:19;100764.28;;;12.32;84.99
77149;BME280;66122;47.130;16.844;2023-10-08T22:43:27;100783.59;;;12.35;84.10
77149;BME280;66122;47.130;16.844;2023-10-08T22:53:39;100767.06;;;12.29;84.84
77149;BME280;66122;47.130;16.844;2023-10-08T23:03:45;100773.31;;;12.07;86.71
77149;BME280;66122;47.130;16.844;2023-10-08T23:13:49;100776.44;;;12.17;85.78
77149;BME280;66122;47.130;16.844;2023-10-08T23:23:53;100794.09;;;12.18;85.50
77149;BME280;66122;47.130;16.844;2023-10-08T23:33:56;100760.56;;;12.16;86.26
77149;BME280;66122;47.130;16.844;2023-10-08T23:44:02;100751.22;;;11.87;88.44
77149;BME280;66122;47.130;16.844;2023-10-08T23:54:05;100750.34;;;11.86;88.36
